ENNA METAR and TAF weather

Enter ICAO airport designator
Station Type Date Time Source
ENNA METAR 2022/01/26 13:20 UTC NOAA

ENNA 261320Z 16011KT CAVOK M10/M13 Q0997 RMK WIND 1800FT 25012KT


Station Type Date Time Source
ENNA Decoded METAR 2022/01/26 13:20 UTC NOAA

Banak, Norway (ENNA) 70-04N 024-59E 8M
Jan 26, 2022 - 08:20 AM EST / 2022.01.26 1320 UTC
Wind: from the SSE (160 degrees) at 13 MPH (11 KT):0
Visibility: greater than 7 mile(s):0
Temperature: 14 F (-10 C)
Windchill: 0 F (-18 C):1
Dew Point: 8 F (-13 C)
Relative Humidity: 78%
Pressure (altimeter): 29.44 in. Hg (0997 hPa)
ob: ENNA 261320Z 16011KT CAVOK M10/M13 Q0997 RMK WIND 1800FT 25012KT
cycle: 13

Station Type Date Time Source
ENNA TAF 2022/01/26 12:57 UTC NOAA

TAF TAF ENNA 261100Z 2612/2712 18009KT 9999 SCT050

Example: see airport list